createdAt,value
2019-05-07T00:00:26.424Z,13.00
2019-05-07T00:02:55.025Z,13.50
2019-05-07T00:05:23.643Z,13.33
2019-05-07T00:07:52.248Z,12.82
2019-05-07T00:10:21.846Z,13.00
2019-05-07T00:12:52.072Z,12.54
2019-05-07T00:15:22.870Z,12.36
2019-05-07T00:17:52.269Z,12.49
2019-05-07T00:20:23.082Z,11.80
2019-05-07T00:22:53.319Z,12.65
2019-05-07T00:25:22.837Z,12.46
2019-05-07T00:27:52.349Z,11.43
2019-05-07T00:30:22.359Z,12.45
2019-05-07T00:32:53.083Z,11.75
2019-05-07T00:35:24.190Z,12.68
2019-05-07T00:37:58.670Z,12.12
2019-05-07T00:40:49.159Z,11.86
2019-05-07T00:43:22.672Z,12.65
2019-05-07T00:46:02.139Z,11.53
2019-05-07T00:48:30.138Z,12.28
2019-05-07T00:51:17.784Z,13.24
2019-05-07T00:53:46.454Z,12.99
2019-05-07T00:56:15.153Z,12.81
2019-05-07T00:58:43.778Z,13.04
2019-05-07T01:01:13.082Z,12.82
2019-05-07T01:03:42.465Z,12.26
2019-05-07T01:06:12.859Z,12.59
2019-05-07T01:08:43.009Z,12.64
2019-05-07T01:11:13.123Z,13.27
2019-05-07T01:13:43.196Z,12.64
2019-05-07T01:16:12.906Z,12.61
2019-05-07T01:18:42.223Z,13.16
2019-05-07T01:21:13.091Z,13.66
2019-05-07T01:23:42.742Z,12.73
2019-05-07T01:26:12.418Z,12.53
2019-05-07T01:29:02.477Z,13.37
2019-05-07T01:31:34.317Z,12.76
2019-05-07T01:34:18.303Z,12.10
2019-05-07T01:36:46.921Z,12.49
2019-05-07T01:39:15.808Z,13.05
2019-05-07T01:41:44.440Z,12.67
2019-05-07T01:44:13.325Z,13.38
2019-05-07T01:46:42.272Z,12.81
2019-05-07T01:49:12.588Z,12.56
2019-05-07T01:51:42.292Z,13.12
2019-05-07T01:54:12.969Z,13.17
2019-05-07T01:56:42.733Z,12.50
2019-05-07T01:59:12.171Z,12.58
2019-05-07T02:01:42.947Z,12.61
2019-05-07T02:04:32.701Z,12.73
2019-05-07T02:07:23.623Z,12.59
2019-05-07T02:09:59.498Z,13.12
2019-05-07T02:12:31.890Z,12.85
2019-05-07T02:15:02.686Z,12.70
2019-05-07T02:17:32.179Z,12.41
2019-05-07T02:20:05.561Z,12.13
2019-05-07T02:22:34.589Z,11.84
2019-05-07T02:25:03.493Z,12.39
2019-05-07T02:27:32.916Z,12.72
2019-05-07T02:30:04.103Z,12.37
2019-05-07T02:32:33.397Z,13.10
2019-05-07T02:35:04.032Z,13.02
2019-05-07T02:37:48.454Z,12.61
2019-05-07T02:40:23.399Z,11.91
2019-05-07T02:42:54.054Z,13.01
2019-05-07T02:45:44.296Z,12.09
2019-05-07T02:48:13.977Z,11.36
2019-05-07T02:51:03.866Z,11.88
2019-05-07T02:53:38.572Z,11.84
2019-05-07T02:56:07.431Z,11.22
2019-05-07T02:58:36.037Z,12.09
2019-05-07T03:01:05.293Z,11.34
2019-05-07T03:03:33.988Z,11.68
2019-05-07T03:06:03.267Z,11.16
2019-05-07T03:08:33.062Z,11.98
2019-05-07T03:11:03.381Z,10.66
2019-05-07T03:13:33.662Z,11.49
2019-05-07T03:16:03.763Z,11.35
2019-05-07T03:18:33.534Z,10.37
2019-05-07T03:21:12.553Z,11.71
2019-05-07T03:23:49.959Z,11.90
2019-05-07T03:26:23.167Z,11.63
2019-05-07T03:28:54.088Z,11.31
2019-05-07T03:31:36.434Z,12.10
2019-05-07T03:34:16.117Z,11.10
2019-05-07T03:36:49.276Z,11.82
2019-05-07T03:39:18.266Z,12.21
2019-05-07T03:41:46.867Z,12.24
2019-05-07T03:44:23.821Z,11.96
2019-05-07T03:47:01.592Z,11.48
2019-05-07T03:49:34.035Z,11.81
2019-05-07T03:52:04.288Z,12.20
2019-05-07T03:54:33.979Z,12.32
2019-05-07T03:57:10.279Z,12.47
2019-05-07T03:59:34.350Z,11.35
2019-05-07T04:02:03.476Z,11.96
2019-05-07T04:04:33.227Z,12.24
2019-05-07T04:07:03.369Z,12.16
2019-05-07T04:09:33.313Z,13.03
2019-05-07T04:12:03.864Z,12.25
2019-05-07T04:14:34.394Z,12.43
2019-05-07T04:17:14.358Z,12.95
2019-05-07T04:19:34.441Z,12.25
2019-05-07T04:22:04.384Z,12.88
2019-05-07T04:24:42.877Z,12.91
2019-05-07T04:27:27.807Z,12.97
2019-05-07T04:29:56.407Z,12.72
2019-05-07T04:32:28.847Z,12.19
2019-05-07T04:35:04.411Z,12.56
2019-05-07T04:37:33.453Z,12.32
2019-05-07T04:40:03.195Z,13.00
2019-05-07T04:42:33.401Z,13.12
2019-05-07T04:45:04.296Z,13.52
2019-05-07T04:47:42.107Z,13.05
2019-05-07T04:50:04.069Z,13.44
2019-05-07T04:52:35.451Z,13.23
2019-05-07T04:55:04.945Z,12.60
2019-05-07T04:57:33.658Z,13.06
2019-05-07T05:00:03.365Z,13.64
2019-05-07T05:02:52.858Z,12.82
2019-05-07T05:05:23.637Z,12.80
2019-05-07T05:07:53.346Z,12.84
2019-05-07T05:10:23.237Z,13.17
2019-05-07T05:12:53.594Z,12.06
2019-05-07T05:15:22.727Z,13.09
2019-05-07T05:17:53.852Z,12.96
2019-05-07T05:20:28.256Z,13.58
2019-05-07T05:23:18.739Z,13.58
2019-05-07T05:25:47.375Z,13.54
2019-05-07T05:28:16.309Z,13.59
2019-05-07T05:30:49.051Z,13.25
2019-05-07T05:33:17.701Z,13.37
2019-05-07T05:35:46.307Z,13.67
2019-05-07T05:38:14.893Z,13.09
2019-05-07T05:40:43.519Z,12.86
2019-05-07T05:43:22.331Z,13.33
2019-05-07T05:45:53.006Z,13.16
2019-05-07T05:48:22.414Z,13.48
2019-05-07T05:50:57.597Z,13.88
2019-05-07T05:53:32.707Z,13.99
2019-05-07T05:56:04.796Z,14.00
2019-05-07T05:58:49.626Z,14.23
2019-05-07T06:01:37.983Z,14.49
2019-05-07T06:04:23.390Z,14.04
2019-05-07T06:07:10.590Z,14.65
2019-05-07T06:09:35.324Z,14.28
2019-05-07T06:12:19.080Z,14.36
2019-05-07T06:14:54.522Z,12.74
2019-05-07T06:17:34.080Z,13.18
2019-05-07T06:20:22.574Z,13.06
2019-05-07T06:23:09.071Z,13.46
2019-05-07T06:25:38.010Z,13.56
2019-05-07T06:28:06.682Z,14.42
2019-05-07T06:30:35.552Z,14.66
2019-05-07T06:33:04.172Z,13.89
2019-05-07T06:35:33.282Z,14.55
2019-05-07T06:38:03.472Z,14.77
2019-05-07T06:40:51.916Z,14.78
2019-05-07T06:43:25.553Z,15.19
2019-05-07T06:45:56.135Z,15.23
2019-05-07T06:48:37.639Z,14.35
2019-05-07T06:50:58.140Z,14.92
2019-05-07T06:53:27.844Z,15.23
2019-05-07T06:55:57.310Z,14.45
2019-05-07T06:58:29.091Z,14.89
2019-05-07T07:01:12.085Z,14.98
2019-05-07T07:03:59.453Z,15.04
2019-05-07T07:06:32.186Z,14.39
2019-05-07T07:09:25.280Z,15.29
2019-05-07T07:11:57.686Z,15.21
2019-05-07T07:14:26.582Z,15.21
2019-05-07T07:16:55.207Z,14.98
2019-05-07T07:19:23.832Z,15.30
2019-05-07T07:21:52.851Z,15.18
2019-05-07T07:24:22.292Z,15.99
2019-05-07T07:26:52.794Z,14.98
2019-05-07T07:29:23.668Z,14.98
2019-05-07T07:31:55.543Z,15.12
2019-05-07T07:34:25.557Z,14.84
2019-05-07T07:37:12.845Z,14.70
2019-05-07T07:39:39.476Z,14.70
2019-05-07T07:42:08.205Z,14.33
2019-05-07T07:44:36.837Z,15.22
2019-05-07T07:47:05.784Z,14.69
2019-05-07T07:49:34.487Z,14.40
2019-05-07T07:52:03.406Z,14.40
2019-05-07T07:54:32.242Z,13.90
2019-05-07T07:57:09.897Z,13.45
2019-05-07T07:59:45.327Z,13.82
2019-05-07T08:02:18.819Z,13.88
2019-05-07T08:04:47.445Z,13.81
2019-05-07T08:07:16.191Z,13.51
2019-05-07T08:09:44.954Z,13.95
2019-05-07T08:12:13.623Z,14.92
2019-05-07T08:14:42.853Z,15.58
2019-05-07T08:17:12.963Z,16.67
2019-05-07T08:19:42.926Z,17.85
2019-05-07T08:22:12.190Z,17.06
2019-05-07T08:24:42.656Z,18.09
2019-05-07T08:27:14.779Z,18.14
2019-05-07T08:29:42.990Z,18.04
2019-05-07T08:32:29.652Z,17.13
2019-05-07T08:35:03.509Z,17.17
2019-05-07T08:37:32.228Z,16.57
2019-05-07T08:40:03.077Z,16.53
2019-05-07T08:42:32.092Z,15.51
2019-05-07T08:45:08.231Z,16.26
2019-05-07T08:47:42.544Z,16.50
2019-05-07T08:50:11.810Z,16.90
2019-05-07T08:52:41.959Z,16.82
2019-05-07T08:55:12.586Z,17.16
2019-05-07T08:57:42.034Z,17.45
2019-05-07T09:00:12.725Z,18.00
2019-05-07T09:02:42.169Z,17.07
2019-05-07T09:05:12.025Z,19.00
2019-05-07T09:07:42.570Z,18.32
2019-05-07T09:10:12.632Z,17.83
2019-05-07T09:12:42.953Z,19.37
2019-05-07T09:15:12.477Z,19.71
2019-05-07T09:17:42.280Z,19.93
2019-05-07T09:20:12.556Z,21.19
2019-05-07T09:22:42.678Z,21.70
2019-05-07T09:25:12.886Z,21.55
2019-05-07T09:27:52.436Z,22.69
2019-05-07T09:30:28.602Z,24.53
2019-05-07T09:33:05.020Z,23.75
2019-05-07T09:35:42.420Z,23.10
2019-05-07T09:38:12.176Z,20.96
2019-05-07T09:40:42.178Z,19.98
2019-05-07T09:43:11.760Z,21.32
2019-05-07T09:45:42.057Z,21.91
2019-05-07T09:48:11.985Z,21.68
2019-05-07T09:50:42.842Z,22.81
2019-05-07T09:53:12.764Z,22.95
2019-05-07T09:55:42.573Z,22.15
2019-05-07T09:58:12.538Z,20.36
2019-05-07T10:00:42.463Z,17.61
2019-05-07T10:03:12.837Z,18.10
2019-05-07T10:05:42.729Z,17.48
2019-05-07T10:08:12.872Z,17.69
2019-05-07T10:10:42.656Z,17.46
2019-05-07T10:13:27.362Z,17.68
2019-05-07T10:15:56.304Z,17.37
2019-05-07T10:18:24.984Z,17.67
2019-05-07T10:20:54.261Z,16.25
2019-05-07T10:23:23.447Z,16.28
2019-05-07T10:25:56.608Z,16.50
2019-05-07T10:28:25.394Z,16.09
2019-05-07T10:30:54.973Z,16.42
2019-05-07T10:33:24.262Z,15.54
2019-05-07T10:35:53.127Z,16.17
2019-05-07T10:38:22.029Z,15.45
2019-05-07T10:40:50.909Z,15.97
2019-05-07T10:43:19.509Z,15.95
2019-05-07T10:46:12.756Z,16.66
2019-05-07T10:48:58.304Z,15.54
2019-05-07T10:51:27.343Z,15.56
2019-05-07T10:53:55.944Z,15.87
2019-05-07T10:56:24.628Z,16.23
2019-05-07T10:58:53.310Z,16.19
2019-05-07T11:01:35.189Z,16.84
2019-05-07T11:04:03.812Z,15.86
2019-05-07T11:06:32.504Z,15.86
2019-05-07T11:09:01.559Z,15.70
2019-05-07T11:11:31.880Z,15.93
2019-05-07T11:14:01.914Z,15.93
2019-05-07T11:16:34.968Z,15.64
2019-05-07T11:19:04.058Z,15.64
2019-05-07T11:21:33.561Z,17.47
2019-05-07T11:24:03.311Z,17.46
2019-05-07T11:26:32.888Z,17.46
2019-05-07T11:29:02.534Z,18.48
2019-05-07T11:31:33.547Z,18.75
2019-05-07T11:34:02.770Z,16.87
2019-05-07T11:36:32.025Z,18.08
2019-05-07T11:39:02.341Z,17.82
2019-05-07T11:41:42.298Z,17.19
2019-05-07T11:44:23.024Z,16.16
2019-05-07T11:47:09.315Z,17.53
2019-05-07T11:49:55.860Z,18.75
2019-05-07T11:52:31.679Z,18.36
2019-05-07T11:55:00.217Z,17.83
2019-05-07T11:57:29.205Z,17.93
2019-05-07T11:59:57.806Z,18.09
2019-05-07T12:02:27.037Z,18.45
2019-05-07T12:04:55.651Z,18.34
2019-05-07T12:07:24.531Z,18.31
2019-05-07T12:09:53.123Z,18.04
2019-05-07T12:12:22.248Z,18.79
2019-05-07T12:14:51.821Z,17.76
2019-05-07T12:17:22.378Z,18.54
2019-05-07T12:19:52.695Z,18.61
2019-05-07T12:22:39.458Z,18.46
2019-05-07T12:25:08.202Z,18.44
2019-05-07T12:27:38.289Z,18.22
2019-05-07T12:30:08.606Z,18.86
2019-05-07T12:32:43.210Z,19.07
2019-05-07T12:35:14.620Z,18.27
2019-05-07T12:37:46.228Z,18.34
2019-05-07T12:40:14.343Z,17.16
2019-05-07T12:42:45.496Z,18.13
2019-05-07T12:45:13.566Z,18.83
2019-05-07T12:47:42.405Z,17.85
2019-05-07T12:50:11.214Z,17.15
2019-05-07T12:52:49.201Z,18.15
2019-05-07T12:55:25.823Z,17.89
2019-05-07T12:57:54.518Z,18.22
2019-05-07T13:00:46.207Z,18.63
2019-05-07T13:03:21.778Z,17.73
2019-05-07T13:05:52.082Z,17.29
2019-05-07T13:08:22.975Z,18.28
2019-05-07T13:10:51.975Z,18.25
2019-05-07T13:13:20.631Z,18.67
2019-05-07T13:15:51.653Z,18.54
2019-05-07T13:18:19.722Z,17.71
2019-05-07T13:20:48.925Z,16.91
2019-05-07T13:23:17.558Z,16.45
2019-05-07T13:25:46.234Z,15.98
2019-05-07T13:28:14.852Z,16.29
2019-05-07T13:30:43.859Z,15.86
2019-05-07T13:33:13.370Z,16.33
2019-05-07T13:35:44.396Z,15.09
2019-05-07T13:38:51.839Z,15.38
2019-05-07T13:41:41.749Z,15.17
2019-05-07T13:44:38.721Z,15.65
2019-05-07T13:47:27.520Z,15.96
2019-05-07T13:49:56.313Z,16.20
2019-05-07T13:52:25.349Z,15.71
2019-05-07T13:54:54.504Z,16.58
2019-05-07T13:57:23.474Z,16.05
2019-05-07T13:59:53.161Z,16.50
2019-05-07T14:02:23.467Z,16.50
2019-05-07T14:04:52.620Z,17.23
2019-05-07T14:07:21.844Z,18.03
2019-05-07T14:09:52.480Z,17.60
2019-05-07T14:12:22.892Z,17.62
2019-05-07T14:14:53.062Z,17.65
2019-05-07T14:17:21.970Z,19.11
2019-05-07T14:19:52.840Z,18.58
2019-05-07T14:22:22.485Z,19.54
2019-05-07T14:24:52.963Z,18.81
2019-05-07T14:27:21.940Z,19.18
2019-05-07T14:29:51.993Z,18.23
2019-05-07T14:32:39.341Z,18.16
2019-05-07T14:35:32.247Z,18.65
2019-05-07T14:38:07.818Z,19.32
2019-05-07T14:40:36.485Z,19.30
2019-05-07T14:43:10.128Z,18.78
2019-05-07T14:45:38.905Z,19.89
2019-05-07T14:48:07.770Z,18.46
2019-05-07T14:50:36.627Z,17.79
2019-05-07T14:53:05.502Z,18.58
2019-05-07T14:55:34.343Z,18.57
2019-05-07T14:58:03.051Z,19.10
2019-05-07T15:00:31.725Z,18.92
2019-05-07T15:03:01.951Z,18.62
2019-05-07T15:05:32.221Z,18.98
2019-05-07T15:08:08.454Z,17.27
2019-05-07T15:10:32.591Z,17.45
2019-05-07T15:13:02.270Z,17.28
2019-05-07T15:15:31.643Z,17.33
2019-05-07T15:18:05.335Z,17.96
2019-05-07T15:20:34.017Z,17.84
2019-05-07T15:23:08.058Z,18.68
2019-05-07T15:25:36.770Z,18.54
2019-05-07T15:28:05.883Z,17.81
2019-05-07T15:30:52.371Z,17.21
2019-05-07T15:33:21.787Z,16.75
2019-05-07T15:35:52.104Z,17.34
2019-05-07T15:38:21.854Z,17.39
2019-05-07T15:40:51.935Z,17.38
2019-05-07T15:43:21.040Z,17.54
2019-05-07T15:45:49.922Z,16.73
2019-05-07T15:48:18.621Z,15.87
2019-05-07T15:50:47.529Z,17.53
2019-05-07T15:53:21.902Z,17.65
2019-05-07T15:55:52.316Z,17.81
2019-05-07T15:58:22.710Z,17.34
2019-05-07T16:00:51.812Z,18.08
2019-05-07T16:03:25.707Z,17.70
2019-05-07T16:05:54.341Z,17.79
2019-05-07T16:08:24.177Z,17.37
2019-05-07T16:10:53.225Z,17.39
2019-05-07T16:13:25.719Z,17.64
2019-05-07T16:15:54.342Z,17.43
2019-05-07T16:18:27.923Z,17.01
2019-05-07T16:20:56.577Z,16.18
2019-05-07T16:23:25.175Z,16.33
2019-05-07T16:25:54.165Z,16.63
2019-05-07T16:28:22.832Z,15.59
2019-05-07T16:30:52.149Z,16.09
2019-05-07T16:33:20.835Z,15.73
2019-05-07T16:35:49.455Z,15.74
2019-05-07T16:38:18.324Z,16.75
2019-05-07T16:40:46.963Z,16.83
2019-05-07T16:43:15.598Z,17.71
2019-05-07T16:45:44.536Z,16.55
2019-05-07T16:48:13.156Z,17.23
2019-05-07T16:50:41.808Z,18.10
2019-05-07T16:53:13.420Z,18.44
2019-05-07T16:55:42.858Z,17.35
2019-05-07T16:58:23.298Z,17.92
2019-05-07T17:00:54.571Z,16.76
2019-05-07T17:03:28.114Z,17.78
2019-05-07T17:05:56.792Z,17.86
2019-05-07T17:08:31.918Z,18.05
2019-05-07T17:11:02.891Z,18.25
2019-05-07T17:13:31.963Z,18.58
2019-05-07T17:16:03.359Z,18.00
2019-05-07T17:18:32.795Z,18.26
2019-05-07T17:21:02.056Z,18.55
2019-05-07T17:23:43.806Z,18.46
2019-05-07T17:26:01.327Z,18.69
2019-05-07T17:28:31.929Z,17.63
2019-05-07T17:31:02.911Z,16.36
2019-05-07T17:33:31.953Z,17.15
2019-05-07T17:36:02.424Z,17.81
2019-05-07T17:38:32.184Z,17.31
2019-05-07T17:41:10.807Z,17.29
2019-05-07T17:43:32.488Z,17.90
2019-05-07T17:46:02.822Z,18.20
2019-05-07T17:48:32.869Z,18.48
2019-05-07T17:51:24.172Z,17.87
2019-05-07T17:53:59.657Z,18.15
2019-05-07T17:56:24.113Z,17.93
2019-05-07T17:58:52.947Z,18.10
2019-05-07T18:01:26.544Z,17.78
2019-05-07T18:03:55.321Z,18.19
2019-05-07T18:06:24.017Z,16.87
2019-05-07T18:08:52.694Z,17.97
2019-05-07T18:11:24.183Z,16.82
2019-05-07T18:13:51.892Z,17.44
2019-05-07T18:16:35.432Z,17.45
2019-05-07T18:19:04.439Z,17.87
2019-05-07T18:21:33.342Z,17.57
2019-05-07T18:24:13.012Z,16.97
2019-05-07T18:26:33.763Z,16.89
2019-05-07T18:29:03.525Z,16.88
2019-05-07T18:31:57.587Z,16.87
2019-05-07T18:34:26.637Z,16.57
2019-05-07T18:36:55.615Z,16.24
2019-05-07T18:39:24.249Z,15.66
2019-05-07T18:41:52.890Z,15.92
2019-05-07T18:44:22.323Z,16.17
2019-05-07T18:46:52.891Z,15.93
2019-05-07T18:49:21.575Z,15.93
2019-05-07T18:51:52.100Z,15.47
2019-05-07T18:54:30.524Z,15.47
2019-05-07T18:56:52.919Z,15.07
2019-05-07T18:59:24.112Z,15.98
2019-05-07T19:01:53.018Z,14.84
2019-05-07T19:04:22.337Z,14.84
2019-05-07T19:06:51.849Z,15.00
2019-05-07T19:09:22.493Z,15.09
2019-05-07T19:11:52.280Z,14.85
2019-05-07T19:14:22.663Z,14.58
2019-05-07T19:16:52.642Z,14.81
2019-05-07T19:19:22.145Z,15.24
2019-05-07T19:21:52.995Z,14.98
2019-05-07T19:24:23.068Z,15.26
2019-05-07T19:26:52.869Z,15.28
2019-05-07T19:29:23.258Z,15.54
2019-05-07T19:31:52.608Z,15.93
2019-05-07T19:34:21.922Z,15.40
2019-05-07T19:36:51.987Z,15.84
2019-05-07T19:39:23.411Z,15.84
2019-05-07T19:41:52.382Z,15.61
2019-05-07T19:44:21.085Z,14.70
2019-05-07T19:46:52.239Z,14.88
2019-05-07T19:49:20.364Z,14.94
2019-05-07T19:51:48.978Z,14.87
2019-05-07T19:54:17.582Z,15.51
2019-05-07T19:56:46.228Z,15.46
2019-05-07T19:59:14.903Z,15.97
2019-05-07T20:01:47.624Z,15.97
2019-05-07T20:04:16.473Z,15.84
2019-05-07T20:06:45.168Z,16.16
2019-05-07T20:09:15.855Z,15.31
2019-05-07T20:11:46.748Z,15.76
2019-05-07T20:14:15.425Z,15.94
2019-05-07T20:16:44.037Z,15.80
2019-05-07T20:19:12.726Z,15.88
2019-05-07T20:21:41.340Z,15.70
2019-05-07T20:24:12.302Z,15.51
2019-05-07T20:26:43.005Z,15.51
2019-05-07T20:29:12.447Z,15.09
2019-05-07T20:31:42.362Z,15.62
2019-05-07T20:34:13.069Z,16.37
2019-05-07T20:36:42.748Z,15.64
2019-05-07T20:39:12.795Z,15.64
2019-05-07T20:41:42.949Z,15.57
2019-05-07T20:44:12.199Z,15.15
2019-05-07T20:46:42.137Z,15.74
2019-05-07T20:49:12.871Z,15.44
2019-05-07T20:51:41.852Z,15.38
2019-05-07T20:54:29.651Z,15.21
2019-05-07T20:57:13.067Z,15.60
2019-05-07T20:59:41.300Z,14.60
2019-05-07T21:02:11.909Z,14.95
2019-05-07T21:04:42.334Z,15.41
2019-05-07T21:07:11.807Z,15.30
2019-05-07T21:09:42.280Z,15.02
2019-05-07T21:12:12.857Z,15.21
2019-05-07T21:14:41.854Z,14.42
2019-05-07T21:17:11.972Z,14.91
2019-05-07T21:19:42.852Z,15.07
2019-05-07T21:22:12.995Z,14.26
2019-05-07T21:24:42.328Z,15.33
2019-05-07T21:27:12.176Z,15.03
2019-05-07T21:29:42.274Z,15.03
2019-05-07T21:32:12.359Z,15.19
2019-05-07T21:34:42.121Z,15.68
2019-05-07T21:37:12.573Z,15.28
2019-05-07T21:39:42.435Z,14.30
2019-05-07T21:42:13.872Z,14.58
2019-05-07T21:44:43.061Z,15.27
2019-05-07T21:47:12.635Z,15.08
2019-05-07T21:49:43.057Z,15.07
2019-05-07T21:52:12.697Z,14.30
2019-05-07T21:54:48.032Z,14.30
2019-05-07T21:57:33.650Z,14.10
2019-05-07T22:00:15.777Z,13.95
2019-05-07T22:02:44.517Z,13.93
2019-05-07T22:07:54.122Z,13.93
2019-05-07T22:10:22.270Z,14.09
2019-05-07T22:12:52.106Z,14.10
2019-05-07T22:15:22.536Z,13.94
2019-05-07T22:17:52.055Z,13.58
2019-05-07T22:20:21.053Z,13.57
2019-05-07T22:22:49.667Z,13.20
2019-05-07T22:25:18.296Z,13.42
2019-05-07T22:27:46.949Z,13.00
2019-05-07T22:30:23.195Z,13.26
2019-05-07T22:32:56.407Z,12.92
2019-05-07T22:35:37.827Z,13.02
2019-05-07T22:38:06.495Z,13.06
2019-05-07T22:40:35.232Z,12.91
2019-05-07T22:43:03.999Z,13.02
2019-05-07T22:45:32.975Z,13.09
2019-05-07T22:48:02.835Z,12.57
2019-05-07T22:50:33.156Z,12.80
2019-05-07T22:53:02.067Z,12.88
2019-05-07T22:55:32.692Z,12.65
2019-05-07T22:58:05.910Z,12.67
2019-05-07T23:00:37.617Z,12.02
2019-05-07T23:03:06.564Z,12.09
2019-05-07T23:05:35.181Z,12.22
2019-05-07T23:08:04.050Z,12.49
2019-05-07T23:10:33.388Z,12.59
2019-05-07T23:13:02.418Z,12.71
2019-05-07T23:15:32.200Z,12.96
2019-05-07T23:18:04.186Z,12.85
2019-05-07T23:20:31.996Z,12.91
2019-05-07T23:23:00.778Z,12.93
2019-05-07T23:25:29.629Z,12.99
2019-05-07T23:27:58.265Z,13.03
2019-05-07T23:30:26.861Z,12.47
2019-05-07T23:32:55.757Z,12.73
2019-05-07T23:35:24.464Z,12.86
2019-05-07T23:37:53.138Z,13.13
2019-05-07T23:40:41.845Z,13.30
2019-05-07T23:43:12.262Z,12.75
2019-05-07T23:45:42.056Z,13.76
2019-05-07T23:48:12.311Z,13.86
2019-05-07T23:50:41.852Z,13.94
2019-05-07T23:53:12.829Z,13.91
2019-05-07T23:55:42.463Z,13.51
2019-05-07T23:58:13.830Z,14.62
